createdAt,value
2017-04-04T00:00:30.271Z,81.77
2017-04-04T00:05:27.569Z,82.00
2017-04-04T00:10:24.207Z,82.00
2017-04-04T00:15:21.372Z,82.05
2017-04-04T00:20:18.431Z,82.53
2017-04-04T00:25:15.502Z,82.34
2017-04-04T00:30:12.188Z,82.81
2017-04-04T00:35:08.814Z,83.39
2017-04-04T00:40:07.456Z,83.39
2017-04-04T00:45:03.693Z,83.19
2017-04-04T00:50:00.135Z,83.86
2017-04-04T00:54:57.940Z,84.95
2017-04-04T00:59:54.436Z,86.00
2017-04-04T01:04:51.247Z,85.81
2017-04-04T01:09:47.657Z,87.05
2017-04-04T01:14:44.079Z,86.10
2017-04-04T01:19:40.597Z,85.62
2017-04-04T01:24:37.206Z,85.53
2017-04-04T01:29:33.874Z,85.53
2017-04-04T01:34:30.578Z,85.72
2017-04-04T01:39:27.760Z,85.91
2017-04-04T01:44:26.285Z,86.57
2017-04-04T01:49:23.620Z,87.48
2017-04-04T01:54:19.784Z,88.62
2017-04-04T02:04:22.989Z,89.19
2017-04-04T02:09:22.213Z,87.76
2017-04-04T02:14:20.739Z,87.48
2017-04-04T02:19:17.979Z,87.67
2017-04-04T02:24:14.822Z,87.29
2017-04-04T02:29:11.344Z,87.29
2017-04-04T02:34:07.762Z,88.62
2017-04-04T02:44:08.919Z,90.00
2017-04-04T02:49:05.823Z,90.57
2017-04-04T02:54:02.872Z,90.09
2017-04-04T02:59:00.663Z,89.90
2017-04-04T03:03:57.985Z,90.00
2017-04-04T03:08:55.013Z,91.04
2017-04-04T03:13:51.508Z,89.53
2017-04-04T03:18:49.304Z,90.57
2017-04-04T03:28:46.266Z,91.99
2017-04-04T03:33:43.226Z,91.89
2017-04-04T03:38:40.107Z,91.89
2017-04-04T03:43:40.167Z,92.09
2017-04-04T03:48:37.325Z,91.80
2017-04-04T03:53:34.075Z,92.66
2017-04-04T03:58:31.506Z,91.61
2017-04-04T04:03:28.969Z,91.14
2017-04-04T04:08:27.927Z,91.99
2017-04-04T04:13:24.028Z,91.61
2017-04-04T04:18:21.832Z,91.61
2017-04-04T04:23:18.215Z,92.90
2017-04-04T04:28:15.524Z,92.80
2017-04-04T04:33:11.950Z,92.09
2017-04-04T04:43:13.069Z,92.66
2017-04-04T04:53:15.477Z,92.75
2017-04-04T04:58:11.951Z,92.80
2017-04-04T05:03:08.639Z,93.08
2017-04-04T05:08:05.310Z,93.65
2017-04-04T05:13:01.947Z,93.75
2017-04-04T05:17:58.389Z,93.18
2017-04-04T05:22:55.330Z,93.94
2017-04-04T05:27:53.023Z,94.32
2017-04-04T05:32:50.608Z,93.65
2017-04-04T05:37:47.009Z,91.89
2017-04-04T05:42:43.711Z,91.80
2017-04-04T05:47:40.751Z,92.28
2017-04-04T05:52:37.686Z,91.14
2017-04-04T05:57:34.245Z,91.42
2017-04-04T06:02:30.946Z,92.18
2017-04-04T06:07:27.112Z,92.28
2017-04-04T06:12:23.781Z,92.85
2017-04-04T06:17:20.303Z,92.75
2017-04-04T06:22:17.992Z,91.99
2017-04-04T06:27:14.364Z,91.89
2017-04-04T06:32:11.098Z,91.38
2017-04-04T06:37:07.719Z,90.23
2017-04-04T06:42:04.673Z,90.14
2017-04-04T06:47:01.400Z,89.00
2017-04-04T06:51:57.937Z,90.14
2017-04-04T06:56:54.980Z,90.00
2017-04-04T07:01:51.927Z,88.95
2017-04-04T07:06:48.776Z,87.47
2017-04-04T07:11:46.814Z,86.43
2017-04-04T07:16:43.223Z,87.66
2017-04-04T07:21:39.823Z,86.90
2017-04-04T07:26:36.144Z,87.38
2017-04-04T07:31:33.042Z,86.90
2017-04-04T07:36:29.932Z,85.99
2017-04-04T07:41:26.985Z,85.71
2017-04-04T07:46:23.460Z,84.00
2017-04-04T07:51:20.045Z,83.75
2017-04-04T07:56:17.127Z,82.80
2017-04-04T08:01:14.026Z,81.51
2017-04-04T08:06:11.740Z,81.32
2017-04-04T08:11:09.011Z,82.27
2017-04-04T08:16:05.703Z,80.12
2017-04-04T08:21:02.940Z,79.40
2017-04-04T08:25:59.705Z,78.35
2017-04-04T08:30:57.243Z,77.64
2017-04-04T08:35:53.512Z,79.93
2017-04-04T08:40:50.051Z,79.02
2017-04-04T08:45:46.654Z,78.73
2017-04-04T08:50:43.022Z,79.46
2017-04-04T08:55:40.720Z,78.78
2017-04-04T09:00:36.901Z,79.93
2017-04-04T09:05:33.144Z,79.83
2017-04-04T09:10:30.219Z,79.74
2017-04-04T09:15:26.463Z,77.87
2017-04-04T09:20:22.957Z,77.93
2017-04-04T09:25:19.834Z,77.78
2017-04-04T09:30:17.544Z,76.67
2017-04-04T09:35:15.866Z,76.01
2017-04-04T09:40:13.526Z,75.24
2017-04-04T09:45:10.947Z,73.94
2017-04-04T09:50:08.051Z,73.85
2017-04-04T09:55:04.360Z,74.01
2017-04-04T10:00:00.931Z,73.43
2017-04-04T10:04:57.444Z,73.43
2017-04-04T10:09:54.007Z,73.08
2017-04-04T10:14:51.121Z,72.13
2017-04-04T10:19:48.307Z,69.74
2017-04-04T10:24:45.685Z,69.21
2017-04-04T10:29:43.495Z,66.66
2017-04-04T10:34:41.901Z,62.52
2017-04-04T10:39:40.606Z,59.40
2017-04-04T10:44:38.538Z,59.75
2017-04-04T10:49:39.864Z,58.25
2017-04-04T10:54:37.146Z,57.17
2017-04-04T10:59:34.963Z,57.07
2017-04-04T11:04:32.229Z,56.69
2017-04-04T11:09:29.523Z,54.23
2017-04-04T11:14:26.709Z,53.59
2017-04-04T11:19:23.804Z,49.62
2017-04-04T11:24:21.455Z,48.85
2017-04-04T11:29:19.131Z,50.36
2017-04-04T11:34:15.309Z,51.97
2017-04-04T11:39:12.419Z,49.79
2017-04-04T11:49:15.545Z,46.94
2017-04-04T11:54:11.308Z,48.71
2017-04-04T11:59:07.756Z,48.07
2017-04-04T12:04:05.252Z,45.59
2017-04-04T12:09:02.988Z,43.41
2017-04-04T12:13:59.106Z,43.63
2017-04-04T12:18:56.999Z,45.38
2017-04-04T12:23:52.571Z,47.47
2017-04-04T12:28:49.433Z,49.09
2017-04-04T12:33:46.494Z,45.12
2017-04-04T12:38:44.361Z,44.54
2017-04-04T12:43:40.614Z,44.81
2017-04-04T12:48:35.815Z,41.82
2017-04-04T12:58:31.955Z,44.98
2017-04-04T13:03:31.213Z,43.56
2017-04-04T13:08:26.853Z,43.47
2017-04-04T13:13:24.030Z,45.33
2017-04-04T13:18:26.062Z,44.85
2017-04-04T13:23:23.872Z,41.28
2017-04-04T13:28:20.463Z,38.41
2017-04-04T13:33:18.793Z,41.67
2017-04-04T13:38:15.174Z,40.16
2017-04-04T13:43:11.022Z,40.25
2017-04-04T13:48:07.920Z,40.14
2017-04-04T13:53:03.831Z,41.96
2017-04-04T13:57:59.999Z,38.79
2017-04-04T14:02:59.332Z,37.57
2017-04-04T14:07:55.221Z,36.99
2017-04-04T14:12:51.945Z,39.47
2017-04-04T14:17:48.755Z,37.76
2017-04-04T14:22:45.396Z,34.58
2017-04-04T14:27:41.832Z,38.32
2017-04-04T14:32:39.079Z,38.79
2017-04-04T14:37:38.320Z,34.79
2017-04-04T14:42:34.715Z,34.41
2017-04-04T14:47:31.406Z,35.83
2017-04-04T14:52:28.171Z,39.25
2017-04-04T14:57:25.820Z,39.18
2017-04-04T15:02:21.806Z,39.54
2017-04-04T15:07:20.829Z,39.90
2017-04-04T15:12:15.834Z,41.53
2017-04-04T15:17:11.809Z,42.60
2017-04-04T15:22:08.263Z,42.68
2017-04-04T15:27:05.138Z,49.60
2017-04-04T15:32:01.997Z,42.80
2017-04-04T15:36:58.485Z,42.97
2017-04-04T15:41:57.405Z,43.35
2017-04-04T15:46:54.006Z,43.63
2017-04-04T15:51:51.255Z,44.12
2017-04-04T15:56:54.633Z,44.88
2017-04-04T16:01:53.956Z,44.59
2017-04-04T16:06:52.683Z,44.21
2017-04-04T16:11:49.842Z,44.79
2017-04-04T16:16:46.711Z,44.98
2017-04-04T16:21:43.914Z,44.69
2017-04-04T16:26:41.366Z,45.74
2017-04-04T16:31:37.806Z,44.02
2017-04-04T16:36:35.197Z,43.63
2017-04-04T16:41:32.788Z,43.54
2017-04-04T16:46:30.282Z,41.82
2017-04-04T16:51:26.630Z,42.49
2017-04-04T16:56:24.480Z,42.68
2017-04-04T17:01:21.484Z,40.09
2017-04-04T17:06:19.056Z,40.46
2017-04-04T17:11:15.250Z,39.89
2017-04-04T17:16:11.634Z,40.46
2017-04-04T17:21:09.445Z,41.32
2017-04-04T17:31:12.727Z,43.52
2017-04-04T17:36:08.597Z,47.89
2017-04-04T17:41:05.978Z,49.43
2017-04-04T17:46:04.843Z,52.01
2017-04-04T17:51:02.036Z,53.25
2017-04-04T17:55:58.552Z,52.29
2017-04-04T18:00:55.907Z,53.32
2017-04-04T18:10:57.256Z,52.75
2017-04-04T18:15:54.624Z,53.99
2017-04-04T18:20:51.729Z,56.38
2017-04-04T18:25:49.004Z,54.72
2017-04-04T18:30:45.667Z,53.10
2017-04-04T18:35:42.477Z,54.18
2017-04-04T18:40:39.416Z,55.58
2017-04-04T18:45:37.740Z,56.82
2017-04-04T18:50:35.095Z,57.40
2017-04-04T18:55:31.667Z,58.54
2017-04-04T19:00:28.966Z,59.28
2017-04-04T19:05:25.402Z,60.81
2017-04-04T19:10:22.004Z,62.24
2017-04-04T19:15:19.203Z,63.96
2017-04-04T19:20:17.263Z,64.91
2017-04-04T19:25:13.680Z,65.30
2017-04-04T19:30:14.065Z,66.31
2017-04-04T19:35:10.900Z,67.55
2017-04-04T19:40:08.807Z,67.36
2017-04-04T19:45:05.435Z,68.12
2017-04-04T19:50:02.215Z,68.41
2017-04-04T19:54:59.382Z,69.17
2017-04-04T19:59:56.032Z,68.88
2017-04-04T20:04:52.635Z,69.52
2017-04-04T20:09:50.530Z,70.57
2017-04-04T20:14:47.834Z,70.67
2017-04-04T20:19:44.650Z,70.67
2017-04-04T20:24:41.516Z,70.76
2017-04-04T20:29:37.913Z,71.14
2017-04-04T20:34:35.270Z,71.52
2017-04-04T20:39:32.268Z,72.09
2017-04-04T20:44:35.695Z,71.62
2017-04-04T20:49:34.623Z,71.72
2017-04-04T20:54:31.268Z,72.48
2017-04-04T20:59:28.417Z,72.53
2017-04-04T21:04:25.157Z,72.63
2017-04-04T21:09:22.703Z,73.21
2017-04-04T21:14:20.329Z,73.11
2017-04-04T21:19:18.379Z,73.39
2017-04-04T21:24:15.481Z,73.87
2017-04-04T21:29:13.422Z,74.50
2017-04-04T21:34:12.002Z,75.01
2017-04-04T21:39:09.188Z,75.01
2017-04-04T21:44:08.268Z,75.16
2017-04-04T21:49:07.655Z,75.84
2017-04-04T21:54:04.430Z,75.93
2017-04-04T21:59:01.826Z,75.55
2017-04-04T22:03:59.750Z,75.84
2017-04-04T22:08:56.507Z,75.55
2017-04-04T22:19:01.633Z,76.59
2017-04-04T22:29:04.411Z,76.40
2017-04-04T22:34:00.722Z,76.40
2017-04-04T22:44:07.994Z,76.40
2017-04-04T22:49:04.973Z,76.31
2017-04-04T22:54:01.874Z,76.79
2017-04-04T22:59:00.396Z,76.84
2017-04-04T23:09:00.737Z,77.22
2017-04-04T23:13:58.289Z,77.32
2017-04-04T23:18:55.258Z,77.70
2017-04-04T23:23:51.879Z,78.94
2017-04-04T23:28:48.878Z,78.46
2017-04-04T23:33:45.479Z,78.08
2017-04-04T23:38:43.458Z,78.56
2017-04-04T23:43:39.763Z,78.37
2017-04-04T23:48:36.361Z,78.71
2017-04-04T23:53:34.483Z,78.33
2017-04-04T23:58:31.123Z,78.23
